Time;durP1;ratioP1;P1;durP2;ratioP2;P2;SDS_P1;SDS_P2;PMS_P1;PMS_P2;Temp;Humidity;BMP_temperature;BMP_pressure;BME280_temperature;BME280_humidity;BME280_pressure;Samples;Min_cycle;Max_cycle;Signal;HPM_P1;HPM_P2
2021/12/26 00:02:08;;;;;;;20.50;7.65;;;3.60;99.90;;;;;;4951812;29;20050;-76
2021/12/26 00:04:34;;;;;;;22.35;7.53;;;3.60;99.90;;;;;;4949793;29;20114;-79
2021/12/26 00:07:01;;;;;;;20.38;8.02;;;3.50;99.90;;;;;;4951039;29;20039;-75
2021/12/26 00:09:27;;;;;;;20.35;8.05;;;3.50;99.90;;;;;;4950680;29;20039;-68
2021/12/26 00:11:53;;;;;;;27.15;8.10;;;3.50;99.90;;;;;;4950456;29;20101;-77
2021/12/26 00:14:19;;;;;;;21.23;7.35;;;3.50;99.90;;;;;;4949536;29;20035;-77
2021/12/26 00:16:45;;;;;;;19.65;7.13;;;3.60;99.90;;;;;;4950841;29;20626;-77
2021/12/26 00:19:11;;;;;;;18.60;7.22;;;3.60;99.90;;;;;;4950690;29;20171;-76
2021/12/26 00:21:36;;;;;;;18.25;7.05;;;3.60;99.90;;;;;;4950782;28;20114;-76
2021/12/26 00:24:02;;;;;;;24.83;7.82;;;3.70;99.90;;;;;;4949435;29;20418;-77
2021/12/26 00:26:32;;;;;;;19.05;7.68;;;3.70;99.90;;;;;;4949713;29;20038;-69
2021/12/26 00:29:00;;;;;;;13.15;5.20;;;3.70;99.90;;;;;;4950223;29;20035;-76
2021/12/26 00:31:26;;;;;;;18.35;6.95;;;3.60;99.90;;;;;;4949366;29;20035;-70
2021/12/26 00:33:52;;;;;;;19.00;6.50;;;3.60;99.90;;;;;;4950515;29;20043;-75
2021/12/26 00:36:18;;;;;;;20.45;6.95;;;3.60;99.90;;;;;;4951592;29;20035;-75
2021/12/26 00:38:44;;;;;;;17.17;6.03;;;3.60;99.90;;;;;;4949756;29;20034;-77
2021/12/26 00:41:10;;;;;;;18.70;7.15;;;3.70;99.90;;;;;;4951206;29;20472;-77
2021/12/26 00:43:35;;;;;;;19.00;7.25;;;3.60;99.90;;;;;;4949701;29;20028;-76
2021/12/26 00:46:02;;;;;;;21.92;9.02;;;3.60;99.90;;;;;;4949294;29;20130;-76
2021/12/26 00:48:28;;;;;;;22.50;8.23;;;3.60;99.90;;;;;;4949926;29;20031;-70
2021/12/26 00:50:54;;;;;;;19.60;7.38;;;3.60;99.90;;;;;;4950158;29;20034;-77
2021/12/26 00:53:19;;;;;;;21.92;9.13;;;3.60;99.90;;;;;;4950657;29;20437;-74
2021/12/26 00:55:45;;;;;;;19.15;7.85;;;3.60;99.90;;;;;;4949319;29;20047;-75
2021/12/26 00:58:11;;;;;;;19.20;7.45;;;3.70;99.90;;;;;;4949825;29;20041;-72
2021/12/26 01:00:40;;;;;;;15.18;6.65;;;3.70;99.90;;;;;;4949481;29;20031;-78
2021/12/26 01:03:08;;;;;;;15.25;5.85;;;3.70;99.90;;;;;;4949391;29;20035;-76
2021/12/26 01:05:36;;;;;;;15.90;6.35;;;3.60;99.90;;;;;;4949094;28;20031;-77
2021/12/26 01:08:04;;;;;;;17.20;7.00;;;3.60;99.90;;;;;;4950381;29;20555;-76
2021/12/26 01:10:38;;;;;;;17.83;6.70;;;3.60;99.90;;;;;;4949552;29;20046;-70
2021/12/26 01:13:24;;;;;;;15.85;6.68;;;3.60;99.90;;;;;;4950863;29;20062;-76
2021/12/26 01:15:52;;;;;;;19.23;7.45;;;3.50;99.90;;;;;;4949405;29;20110;-76
2021/12/26 01:18:19;;;;;;;21.90;8.05;;;3.50;99.90;;;;;;4950467;29;20031;-76
2021/12/26 01:23:20;;;;;;;18.25;7.78;;;3.40;99.90;;;;;;4948342;29;20051;-73
2021/12/26 01:25:46;;;;;;;23.25;7.53;;;3.40;99.90;;;;;;4945302;29;20428;-75
2021/12/26 01:28:12;;;;;;;19.08;7.63;;;3.40;99.90;;;;;;4949276;29;20039;-70
2021/12/26 01:30:39;;;;;;;17.38;7.18;;;3.40;99.90;;;;;;4948813;29;20409;-76
2021/12/26 01:33:10;;;;;;;19.73;7.20;;;3.40;99.90;;;;;;4947317;29;20074;-75
2021/12/26 01:35:37;;;;;;;17.95;7.22;;;3.40;99.90;;;;;;4946649;28;20039;-75
2021/12/26 01:38:03;;;;;;;18.45;7.05;;;3.40;99.90;;;;;;4952345;29;20031;-76
2021/12/26 01:40:30;;;;;;;23.45;8.25;;;3.40;99.90;;;;;;4952867;28;20130;-69
2021/12/26 01:43:01;;;;;;;19.15;7.72;;;3.40;99.90;;;;;;4951821;29;20027;-75
2021/12/26 01:45:27;;;;;;;14.88;6.30;;;3.40;99.90;;;;;;4950638;29;20070;-76
2021/12/26 01:48:00;;;;;;;18.30;6.70;;;3.40;99.90;;;;;;4951415;29;20063;-76
2021/12/26 01:50:27;;;;;;;16.83;6.75;;;3.40;99.90;;;;;;4950726;29;20065;-75
2021/12/26 01:52:53;;;;;;;17.83;6.63;;;3.40;99.90;;;;;;4949584;29;20654;-76
2021/12/26 01:55:40;;;;;;;16.80;6.95;;;3.30;99.90;;;;;;4952316;29;20096;-73
2021/12/26 01:58:13;;;;;;;20.58;7.13;;;3.40;99.90;;;;;;4951568;29;20027;-75
2021/12/26 02:00:42;;;;;;;19.42;6.97;;;3.30;99.90;;;;;;4944848;29;20038;-76
2021/12/26 02:03:07;;;;;;;18.55;7.50;;;3.30;99.90;;;;;;4951351;29;20027;-75
2021/12/26 02:05:33;;;;;;;19.08;7.22;;;3.40;99.90;;;;;;4950940;29;20043;-69
2021/12/26 02:07:59;;;;;;;21.73;7.35;;;3.40;99.90;;;;;;4951194;29;20150;-76
2021/12/26 02:10:25;;;;;;;21.55;7.80;;;3.40;99.90;;;;;;4951779;29;20110;-73
2021/12/26 02:12:51;;;;;;;19.95;6.78;;;3.40;99.90;;;;;;4950576;29;20620;-75
2021/12/26 02:15:16;;;;;;;18.13;7.18;;;3.40;99.90;;;;;;4951699;29;20050;-75
2021/12/26 02:17:42;;;;;;;19.65;7.25;;;3.40;99.90;;;;;;4950161;29;20031;-75
2021/12/26 02:20:31;;;;;;;18.27;7.07;;;3.40;99.90;;;;;;4950491;29;20440;-76
2021/12/26 02:23:03;;;;;;;16.75;6.57;;;3.30;99.90;;;;;;4948473;29;20067;-74
2021/12/26 02:28:14;;;;;;;22.10;7.78;;;3.30;99.90;;;;;;4951045;29;20051;-73
2021/12/26 02:30:40;;;;;;;20.52;7.95;;;3.30;99.90;;;;;;4950370;29;20346;-73
2021/12/26 02:33:11;;;;;;;23.83;8.27;;;3.30;99.90;;;;;;4950921;29;20042;-73
2021/12/26 02:35:37;;;;;;;19.23;7.47;;;3.30;99.90;;;;;;4951125;29;20077;-72
2021/12/26 02:38:04;;;;;;;19.95;7.47;;;3.30;99.90;;;;;;4950543;29;20122;-75
2021/12/26 02:40:30;;;;;;;23.00;8.13;;;3.30;99.90;;;;;;4950406;29;20034;-73
2021/12/26 02:42:55;;;;;;;23.08;7.97;;;3.40;99.90;;;;;;4949641;29;20035;-73
2021/12/26 02:45:21;;;;;;;22.33;7.90;;;3.40;99.90;;;;;;4949867;29;20427;-74
2021/12/26 02:47:49;;;;;;;23.27;8.07;;;3.40;99.90;;;;;;4948856;28;20054;-74
2021/12/26 02:50:25;;;;;;;18.48;7.07;;;3.40;99.90;;;;;;4950037;28;20031;-72
2021/12/26 02:52:53;;;;;;;20.88;8.23;;;3.30;99.90;;;;;;4949227;28;20082;-75
2021/12/26 02:55:20;;;;;;;21.27;7.78;;;3.40;99.90;;;;;;4950200;29;20031;-75
2021/12/26 02:57:48;;;;;;;21.65;8.10;;;3.40;99.90;;;;;;4947154;29;20035;-75
2021/12/26 03:00:16;;;;;;;20.27;7.80;;;3.40;99.90;;;;;;4950065;29;20471;-75
2021/12/26 03:02:45;;;;;;;21.83;8.10;;;3.30;99.90;;;;;;4949121;29;20059;-75
2021/12/26 03:05:11;;;;;;;20.00;8.05;;;3.30;99.90;;;;;;4949523;29;20101;-76
2021/12/26 03:07:37;;;;;;;21.40;8.02;;;3.30;99.90;;;;;;4948159;29;20050;-69
2021/12/26 03:10:05;;;;;;;20.75;7.80;;;3.40;99.90;;;;;;4949745;29;20424;-74
2021/12/26 03:12:33;;;;;;;20.67;8.43;;;3.40;99.90;;;;;;4948458;29;20042;-72
2021/12/26 03:15:00;;;;;;;21.58;8.10;;;3.40;99.90;;;;;;4948373;29;20042;-76
2021/12/26 03:17:26;;;;;;;19.75;7.63;;;3.40;99.90;;;;;;4949557;28;20039;-76
2021/12/26 03:19:51;;;;;;;23.92;9.02;;;3.30;99.90;;;;;;4948070;29;20039;-76
2021/12/26 03:22:18;;;;;;;22.55;8.82;;;3.30;99.90;;;;;;4949401;29;20102;-75
2021/12/26 03:24:45;;;;;;;24.80;8.55;;;3.30;99.90;;;;;;4949427;29;20366;-76
2021/12/26 03:27:14;;;;;;;25.65;9.75;;;3.30;99.90;;;;;;4949848;29;20035;-70
2021/12/26 03:29:40;;;;;;;22.90;8.70;;;3.30;99.90;;;;;;4949669;29;20057;-73
2021/12/26 03:32:07;;;;;;;25.92;9.02;;;3.30;99.90;;;;;;4964726;28;20027;-76
2021/12/26 03:34:33;;;;;;;27.45;10.15;;;3.30;99.90;;;;;;4950773;29;20519;-75
2021/12/26 03:36:58;;;;;;;25.65;9.20;;;3.30;99.90;;;;;;4949459;29;20059;-75
2021/12/26 03:39:24;;;;;;;24.50;9.07;;;3.30;99.90;;;;;;4950365;29;20074;-76
2021/12/26 03:41:50;;;;;;;26.00;9.82;;;3.30;99.90;;;;;;4949750;29;20035;-75
2021/12/26 03:44:17;;;;;;;27.08;10.70;;;3.30;99.90;;;;;;4949363;28;20794;-74
2021/12/26 03:46:43;;;;;;;25.50;9.13;;;3.30;99.90;;;;;;4949574;28;20039;-74
2021/12/26 03:49:09;;;;;;;30.52;10.68;;;3.30;99.90;;;;;;4946490;29;20107;-75
2021/12/26 03:51:36;;;;;;;30.33;10.50;;;3.30;99.90;;;;;;4944852;29;20049;-75
2021/12/26 03:54:05;;;;;;;30.85;10.90;;;3.30;99.90;;;;;;4948998;29;20093;-74
2021/12/26 03:56:31;;;;;;;29.25;10.10;;;3.30;99.90;;;;;;4949349;29;20043;-75
2021/12/26 03:58:58;;;;;;;26.80;9.55;;;3.20;99.90;;;;;;4948244;28;20031;-73
2021/12/26 04:01:25;;;;;;;29.85;9.73;;;3.20;99.90;;;;;;4949333;29;20031;-75
2021/12/26 04:03:51;;;;;;;28.10;10.25;;;3.20;99.90;;;;;;4947804;29;20613;-75
2021/12/26 04:06:16;;;;;;;30.80;10.75;;;3.20;99.90;;;;;;4949915;29;20039;-75
2021/12/26 04:08:42;;;;;;;31.92;10.52;;;3.10;99.90;;;;;;4948590;29;20090;-74
2021/12/26 04:11:08;;;;;;;34.90;11.32;;;3.20;99.90;;;;;;4950326;29;20148;-75
2021/12/26 04:13:35;;;;;;;29.80;11.27;;;3.10;99.90;;;;;;4949505;28;20027;-76
2021/12/26 04:16:01;;;;;;;29.25;11.35;;;3.20;99.90;;;;;;4945953;29;20819;-75
2021/12/26 04:18:27;;;;;;;30.98;11.20;;;3.20;99.90;;;;;;4948293;29;20271;-75
2021/12/26 04:20:53;;;;;;;30.58;10.77;;;3.20;99.90;;;;;;4947060;28;20106;-76
2021/12/26 04:23:19;;;;;;;32.15;11.05;;;3.20;99.90;;;;;;4950434;28;20648;-74
2021/12/26 04:25:44;;;;;;;32.70;11.45;;;3.20;99.90;;;;;;4948003;29;20085;-76
2021/12/26 04:28:11;;;;;;;31.92;11.23;;;3.10;99.90;;;;;;4948607;29;20071;-73
2021/12/26 04:30:37;;;;;;;31.48;11.30;;;3.10;99.90;;;;;;4948847;29;20349;-76
2021/12/26 04:33:04;;;;;;;34.28;12.13;;;3.10;99.90;;;;;;4948303;28;20024;-76
2021/12/26 04:35:30;;;;;;;31.55;11.45;;;3.10;99.90;;;;;;4949074;28;20043;-76
2021/12/26 04:37:56;;;;;;;32.78;11.93;;;3.10;99.90;;;;;;4947712;29;20082;-72
2021/12/26 04:40:22;;;;;;;33.70;11.60;;;3.00;99.90;;;;;;4943597;29;20060;-76
2021/12/26 04:42:49;;;;;;;33.95;12.40;;;3.00;99.90;;;;;;4947476;29;20031;-77
2021/12/26 04:45:15;;;;;;;32.88;11.70;;;3.00;99.90;;;;;;4948505;29;20027;-78
2021/12/26 04:47:42;;;;;;;33.50;12.32;;;3.00;99.90;;;;;;4948675;28;20117;-68
2021/12/26 04:50:12;;;;;;;30.15;11.25;;;3.00;99.90;;;;;;4948284;29;20118;-77
2021/12/26 04:52:39;;;;;;;33.65;11.32;;;3.00;99.90;;;;;;4948476;29;20642;-72
2021/12/26 04:55:05;;;;;;;31.63;11.15;;;2.90;99.90;;;;;;4948631;28;20462;-69
2021/12/26 04:57:32;;;;;;;33.00;11.32;;;2.90;99.90;;;;;;4947450;29;20043;-69
2021/12/26 04:59:58;;;;;;;32.17;10.90;;;2.90;99.90;;;;;;4947725;29;20023;-73
2021/12/26 05:02:25;;;;;;;30.10;10.68;;;2.90;99.90;;;;;;4948406;29;20071;-72
2021/12/26 05:04:51;;;;;;;30.83;10.82;;;2.90;99.90;;;;;;4947947;29;20047;-73
2021/12/26 05:07:17;;;;;;;34.33;11.25;;;2.90;99.90;;;;;;4949130;29;20078;-70
2021/12/26 05:09:45;;;;;;;29.90;10.48;;;3.00;99.90;;;;;;4947908;28;20035;-69
2021/12/26 05:12:10;;;;;;;30.02;10.85;;;3.00;99.90;;;;;;4950655;29;20035;-72
2021/12/26 05:14:36;;;;;;;28.08;10.63;;;3.00;99.90;;;;;;4949699;28;20035;-74
2021/12/26 05:17:02;;;;;;;30.20;10.88;;;3.00;99.90;;;;;;4953197;28;20098;-73
2021/12/26 05:19:28;;;;;;;29.45;10.52;;;3.00;99.90;;;;;;4951534;28;20035;-73
2021/12/26 05:21:54;;;;;;;30.27;10.60;;;3.00;99.90;;;;;;4951293;29;20416;-71
2021/12/26 05:24:19;;;;;;;27.25;10.23;;;2.90;99.90;;;;;;4951482;29;20073;-67
2021/12/26 05:26:45;;;;;;;28.65;10.40;;;2.90;99.90;;;;;;4952971;29;20062;-65
2021/12/26 05:29:11;;;;;;;29.20;10.40;;;2.90;99.90;;;;;;4952205;28;20038;-72
2021/12/26 05:36:55;;;;;;;27.33;9.82;;;3.00;99.90;;;;;;5240544;23;20051;-71
2021/12/26 05:39:21;;;;;;;28.25;9.73;;;3.00;99.90;;;;;;4973282;28;20030;-70
2021/12/26 05:41:47;;;;;;;31.67;10.13;;;3.00;99.90;;;;;;4966547;28;20031;-70
2021/12/26 05:44:12;;;;;;;26.02;9.38;;;3.00;99.90;;;;;;4972932;28;20030;-70
2021/12/26 05:46:38;;;;;;;31.75;11.40;;;3.00;99.90;;;;;;4972823;28;20035;-70
2021/12/26 05:49:04;;;;;;;27.13;9.77;;;3.00;99.90;;;;;;4973278;28;20027;-70
2021/12/26 05:51:30;;;;;;;30.50;10.32;;;3.00;99.90;;;;;;4973358;28;20027;-70
2021/12/26 05:53:57;;;;;;;28.73;10.23;;;3.00;99.90;;;;;;4974071;28;20042;-70
2021/12/26 05:56:23;;;;;;;26.67;9.52;;;3.00;99.90;;;;;;4972868;28;20219;-70
2021/12/26 05:58:48;;;;;;;26.00;9.40;;;3.00;99.90;;;;;;4972289;28;20031;-70
2021/12/26 06:01:14;;;;;;;26.27;9.57;;;3.00;99.90;;;;;;4972312;28;20027;-70
2021/12/26 06:03:40;;;;;;;25.50;9.23;;;3.10;99.90;;;;;;4970136;28;20105;-67
2021/12/26 06:06:06;;;;;;;26.77;9.93;;;3.10;99.90;;;;;;4972079;28;20061;-68
2021/12/26 06:08:32;;;;;;;25.42;9.20;;;3.10;99.90;;;;;;4970056;28;20031;-68
2021/12/26 06:10:58;;;;;;;29.42;10.48;;;3.10;99.90;;;;;;4974676;28;20649;-68
2021/12/26 06:13:24;;;;;;;24.27;9.02;;;3.10;99.90;;;;;;4972356;28;20035;-68
2021/12/26 06:15:50;;;;;;;26.48;9.45;;;3.10;99.90;;;;;;4971375;28;20039;-68
2021/12/26 06:18:16;;;;;;;26.85;8.85;;;3.10;99.90;;;;;;4972304;28;20070;-68
2021/12/26 06:20:41;;;;;;;26.98;9.70;;;3.00;99.90;;;;;;4971601;28;20050;-68
2021/12/26 06:23:07;;;;;;;25.42;9.75;;;3.00;99.90;;;;;;4970964;28;20102;-69
2021/12/26 06:25:33;;;;;;;25.60;10.07;;;3.00;99.90;;;;;;4972325;28;20042;-69
2021/12/26 06:27:59;;;;;;;27.55;9.82;;;3.00;99.90;;;;;;4971378;28;20035;-68
2021/12/26 06:30:24;;;;;;;24.40;9.27;;;3.00;99.90;;;;;;4972276;28;20055;-68
2021/12/26 06:32:50;;;;;;;26.35;9.85;;;3.00;99.90;;;;;;4966786;28;20031;-68
2021/12/26 06:35:16;;;;;;;26.90;9.90;;;3.00;99.90;;;;;;4972545;28;20094;-68
2021/12/26 06:37:41;;;;;;;26.48;9.93;;;3.00;99.90;;;;;;4971114;28;20537;-68
2021/12/26 06:40:11;;;;;;;25.77;9.63;;;3.00;99.90;;;;;;4955056;28;20118;-68
2021/12/26 06:42:45;;;;;;;27.80;9.63;;;3.00;99.90;;;;;;4967387;28;20043;-67
2021/12/26 06:45:15;;;;;;;22.67;8.50;;;3.00;99.90;;;;;;4971368;28;20119;-68
2021/12/26 06:47:45;;;;;;;25.15;8.93;;;3.00;99.90;;;;;;4974681;28;20588;-68
2021/12/26 06:50:11;;;;;;;25.50;9.07;;;3.00;99.90;;;;;;4968350;28;20678;-68
2021/12/26 06:52:36;;;;;;;26.92;10.25;;;3.10;99.90;;;;;;4967404;28;20106;-68
2021/12/26 06:55:02;;;;;;;22.35;8.82;;;3.10;99.90;;;;;;4969035;28;20042;-68
2021/12/26 06:57:28;;;;;;;27.90;9.68;;;3.00;99.90;;;;;;4972347;28;20119;-68
2021/12/26 06:59:54;;;;;;;23.73;9.25;;;3.00;99.90;;;;;;4970851;28;20110;-68
2021/12/26 07:02:20;;;;;;;27.58;9.07;;;3.00;99.90;;;;;;4972190;28;20030;-68
2021/12/26 07:04:46;;;;;;;16.50;6.88;;;3.00;99.90;;;;;;4953030;28;20085;-68
2021/12/26 07:07:13;;;;;;;19.77;6.82;;;3.00;99.90;;;;;;4971448;28;20122;-68
2021/12/26 07:09:39;;;;;;;17.25;6.35;;;3.10;99.90;;;;;;4971661;28;20034;-68
2021/12/26 07:12:06;;;;;;;18.52;6.63;;;3.10;99.90;;;;;;4969928;28;20522;-68
2021/12/26 07:14:32;;;;;;;13.43;5.57;;;3.10;99.90;;;;;;4973344;28;20077;-68
2021/12/26 07:16:57;;;;;;;16.63;6.25;;;3.20;99.90;;;;;;4966212;28;20051;-68
2021/12/26 07:19:23;;;;;;;18.83;7.00;;;3.20;99.90;;;;;;4971639;28;20039;-68
2021/12/26 07:21:49;;;;;;;17.00;6.80;;;3.20;99.90;;;;;;4968627;28;20030;-68
2021/12/26 07:24:15;;;;;;;17.15;6.53;;;3.20;99.90;;;;;;4971652;28;20038;-68
2021/12/26 07:26:40;;;;;;;14.45;5.57;;;3.20;99.90;;;;;;4970903;28;20045;-68
2021/12/26 07:29:06;;;;;;;13.52;5.57;;;3.20;99.90;;;;;;4970932;28;20026;-68
2021/12/26 07:31:32;;;;;;;13.90;5.50;;;3.20;99.90;;;;;;4971270;28;20039;-68
2021/12/26 07:33:57;;;;;;;14.32;5.78;;;3.20;99.90;;;;;;4971069;28;20045;-68
2021/12/26 07:36:23;;;;;;;13.55;5.43;;;3.20;99.90;;;;;;4970956;28;20139;-68
2021/12/26 07:38:51;;;;;;;12.10;5.32;;;3.20;99.90;;;;;;4970484;28;20249;-68
2021/12/26 07:41:17;;;;;;;14.13;4.70;;;3.20;99.90;;;;;;4971470;28;20030;-67
2021/12/26 07:43:42;;;;;;;14.25;5.57;;;3.20;99.90;;;;;;4970025;28;20109;-68
2021/12/26 07:46:08;;;;;;;13.13;5.05;;;3.20;99.90;;;;;;4971266;28;20038;-68
2021/12/26 07:48:34;;;;;;;13.13;5.05;;;3.20;99.90;;;;;;4971348;28;20035;-68
2021/12/26 07:51:01;;;;;;;11.05;4.63;;;3.20;99.90;;;;;;4969792;28;20054;-68
2021/12/26 07:53:26;;;;;;;10.18;4.30;;;3.20;99.90;;;;;;4969120;28;20046;-68
2021/12/26 07:55:52;;;;;;;11.02;4.70;;;3.20;99.90;;;;;;4974272;28;20035;-68
2021/12/26 07:58:18;;;;;;;11.98;4.97;;;3.20;99.90;;;;;;4971003;28;20463;-68
2021/12/26 08:00:44;;;;;;;16.40;5.43;;;3.20;99.90;;;;;;4953227;28;20031;-68
2021/12/26 08:03:10;;;;;;;15.27;5.97;;;3.20;99.90;;;;;;4970327;28;20776;-68
2021/12/26 08:05:36;;;;;;;25.95;9.05;;;3.20;99.90;;;;;;4972874;28;20038;-68
2021/12/26 08:08:02;;;;;;;28.75;10.77;;;3.20;99.90;;;;;;4969638;28;20517;-68
2021/12/26 08:10:28;;;;;;;23.52;8.85;;;3.20;99.90;;;;;;4953636;28;20035;-68
2021/12/26 08:12:54;;;;;;;21.70;8.65;;;3.30;99.90;;;;;;4969635;28;20034;-67
2021/12/26 08:15:20;;;;;;;20.08;7.50;;;3.30;99.90;;;;;;4970222;28;20031;-68
2021/12/26 08:17:45;;;;;;;16.38;6.60;;;3.30;99.90;;;;;;4969318;28;20037;-68
2021/12/26 08:20:11;;;;;;;15.98;6.72;;;3.30;99.90;;;;;;4970602;28;20035;-68
2021/12/26 08:22:37;;;;;;;14.27;6.53;;;3.30;99.90;;;;;;4950288;28;20045;-68
2021/12/26 08:25:04;;;;;;;15.07;6.80;;;3.40;99.90;;;;;;4967514;28;20038;-68
2021/12/26 08:27:32;;;;;;;15.77;6.90;;;3.50;99.90;;;;;;4968882;28;20039;-69
2021/12/26 08:29:59;;;;;;;14.70;5.65;;;3.50;99.90;;;;;;4969252;28;20035;-69
2021/12/26 08:32:25;;;;;;;13.68;5.75;;;3.50;99.90;;;;;;4970399;28;20030;-69
2021/12/26 08:34:51;;;;;;;13.93;5.72;;;3.40;99.90;;;;;;4969499;28;20042;-69
2021/12/26 08:37:17;;;;;;;24.90;8.23;;;3.50;99.90;;;;;;4970157;28;20614;-69
2021/12/26 08:39:45;;;;;;;21.83;8.52;;;3.50;99.90;;;;;;4970300;28;20109;-69
2021/12/26 08:42:12;;;;;;;18.10;7.47;;;3.60;99.90;;;;;;4970491;28;20038;-69
2021/12/26 08:44:38;;;;;;;13.27;5.72;;;3.60;99.90;;;;;;4969753;28;20039;-69
2021/12/26 08:47:05;;;;;;;15.48;6.03;;;3.70;99.90;;;;;;4969068;28;20027;-69
2021/12/26 08:49:31;;;;;;;25.15;7.85;;;3.70;99.90;;;;;;4969228;28;20038;-69
2021/12/26 08:51:57;;;;;;;26.48;9.18;;;3.70;99.90;;;;;;4968061;28;20046;-69
2021/12/26 08:54:26;;;;;;;22.38;8.02;;;3.70;99.90;;;;;;4970243;28;20042;-69
2021/12/26 08:56:53;;;;;;;24.95;8.32;;;3.80;99.90;;;;;;4969177;28;20331;-69
2021/12/26 08:59:19;;;;;;;15.77;6.55;;;3.80;99.90;;;;;;4970447;28;20027;-69
2021/12/26 09:01:46;;;;;;;15.55;6.70;;;3.90;99.90;;;;;;4969427;28;20046;-69
2021/12/26 09:04:12;;;;;;;14.93;5.32;;;3.90;99.90;;;;;;4968365;28;20039;-69
2021/12/26 09:06:38;;;;;;;17.52;6.65;;;3.90;99.90;;;;;;4969995;28;20054;-69
2021/12/26 09:09:04;;;;;;;19.45;8.02;;;3.90;99.90;;;;;;4969548;28;20031;-69
2021/12/26 09:11:30;;;;;;;13.05;5.35;;;4.00;99.90;;;;;;4970063;28;20145;-70
2021/12/26 09:13:56;;;;;;;15.50;5.97;;;4.00;99.90;;;;;;4951817;28;20037;-69
2021/12/26 09:16:22;;;;;;;23.35;10.43;;;4.10;99.90;;;;;;4970509;28;20035;-70
2021/12/26 09:18:48;;;;;;;13.35;6.55;;;4.10;99.90;;;;;;4969304;28;20038;-70
2021/12/26 09:21:14;;;;;;;15.82;6.68;;;4.20;99.90;;;;;;4969856;28;20057;-69
2021/12/26 09:23:40;;;;;;;16.10;7.47;;;4.30;99.90;;;;;;4970031;28;20523;-69
2021/12/26 09:26:05;;;;;;;11.20;5.22;;;4.30;99.90;;;;;;4951809;28;20030;-70
2021/12/26 09:28:36;;;;;;;11.90;5.13;;;4.30;99.90;;;;;;4969538;28;20067;-69
2021/12/26 09:31:02;;;;;;;12.98;5.22;;;4.30;99.90;;;;;;4969449;28;20471;-69
2021/12/26 09:33:28;;;;;;;12.13;5.43;;;4.30;99.90;;;;;;4969857;28;20394;-69
2021/12/26 09:35:54;;;;;;;10.77;4.45;;;4.40;99.90;;;;;;4970419;28;20102;-69
2021/12/26 09:38:19;;;;;;;11.43;5.10;;;4.40;99.90;;;;;;4989628;28;20058;-69
2021/12/26 09:40:45;;;;;;;38.47;22.00;;;4.40;99.90;;;;;;4989246;28;20030;-69
2021/12/26 09:43:11;;;;;;;10.48;4.78;;;4.40;99.90;;;;;;4988955;28;20390;-69
2021/12/26 09:45:37;;;;;;;10.65;4.47;;;4.40;99.90;;;;;;4971511;28;20026;-69
2021/12/26 09:48:02;;;;;;;13.43;6.53;;;4.40;99.90;;;;;;4988569;28;20077;-69
2021/12/26 09:50:28;;;;;;;10.65;4.72;;;4.40;99.90;;;;;;4988844;28;20097;-69
2021/12/26 09:52:54;;;;;;;10.13;4.47;;;4.40;99.90;;;;;;4988394;28;20027;-69
2021/12/26 09:55:25;;;;;;;12.02;5.30;;;4.40;99.90;;;;;;4989136;28;20065;-70
2021/12/26 09:57:50;;;;;;;8.32;3.72;;;4.50;99.90;;;;;;4973465;28;20057;-69
2021/12/26 10:00:20;;;;;;;10.02;4.70;;;4.50;99.90;;;;;;4993062;28;20073;-70
2021/12/26 10:02:46;;;;;;;11.18;5.22;;;4.50;99.90;;;;;;4993690;28;20034;-69
2021/12/26 10:05:12;;;;;;;21.60;10.68;;;4.50;99.90;;;;;;4992574;28;20042;-70
2021/12/26 10:07:38;;;;;;;23.48;11.73;;;4.60;99.90;;;;;;4992742;28;20118;-70
2021/12/26 10:10:07;;;;;;;12.18;5.85;;;4.60;99.90;;;;;;4991771;28;20470;-70
2021/12/26 10:12:40;;;;;;;10.13;4.80;;;4.70;99.90;;;;;;4992269;28;20077;-70
2021/12/26 10:15:07;;;;;;;9.65;3.85;;;4.70;99.90;;;;;;4991454;28;20142;-69
2021/12/26 10:17:33;;;;;;;22.48;10.55;;;4.70;99.90;;;;;;4992608;28;20026;-70
2021/12/26 10:20:07;;;;;;;28.33;13.95;;;4.70;99.90;;;;;;4991238;28;20077;-70
2021/12/26 10:22:33;;;;;;;14.95;7.03;;;4.80;99.90;;;;;;4992450;28;20054;-70
2021/12/26 10:24:59;;;;;;;13.10;5.13;;;4.80;99.90;;;;;;4987700;28;20039;-67
2021/12/26 10:27:31;;;;;;;10.35;4.30;;;4.90;99.90;;;;;;4992015;28;20073;-67
2021/12/26 10:30:02;;;;;;;11.65;5.30;;;4.90;99.90;;;;;;4989989;28;20041;-67
2021/12/26 10:32:34;;;;;;;8.70;4.18;;;5.00;99.90;;;;;;4984034;28;20031;-67
2021/12/26 10:35:13;;;;;;;11.93;5.13;;;5.10;99.90;;;;;;4991726;28;20030;-69
2021/12/26 10:37:45;;;;;;;17.83;7.93;;;5.20;99.90;;;;;;4976533;28;20082;-67
2021/12/26 10:40:26;;;;;;;11.23;5.60;;;5.30;99.90;;;;;;4971755;28;20037;-67
2021/12/26 10:42:54;;;;;;;9.63;4.53;;;5.40;99.90;;;;;;4972180;28;20054;-66
2021/12/26 10:45:24;;;;;;;11.07;5.38;;;5.50;99.90;;;;;;4972273;28;20467;-67
2021/12/26 10:47:59;;;;;;;10.10;4.65;;;5.60;99.90;;;;;;4971140;28;20031;-67
2021/12/26 10:50:28;;;;;;;21.27;7.07;;;5.60;99.90;;;;;;4972645;28;20035;-67
2021/12/26 10:53:00;;;;;;;30.05;10.90;;;5.80;99.90;;;;;;4953750;28;20054;-68
2021/12/26 10:55:35;;;;;;;23.80;10.45;;;5.90;99.90;;;;;;4972411;28;20045;-68
2021/12/26 10:58:04;;;;;;;55.28;16.10;;;6.10;99.90;;;;;;4971702;28;20030;-68
2021/12/26 11:00:37;;;;;;;25.48;9.77;;;6.30;99.90;;;;;;4972300;28;20046;-67
2021/12/26 11:03:06;;;;;;;95.97;22.52;;;6.50;99.90;;;;;;4974639;28;20035;-68
2021/12/26 11:05:35;;;;;;;13.60;6.07;;;6.50;99.90;;;;;;4978137;28;20035;-68
2021/12/26 11:08:26;;;;;;;18.80;6.78;;;6.50;99.90;;;;;;4970688;28;20045;-68
2021/12/26 11:10:53;;;;;;;;;;;6.50;99.90;;;;;;4961125;28;20050;-68
2021/12/26 11:13:24;;;;;;;35.67;9.27;;;6.40;99.90;;;;;;4971956;28;19917;-68
2021/12/26 11:15:55;;;;;;;49.72;13.60;;;6.40;99.90;;;;;;4971777;28;20093;-68
2021/12/26 11:18:22;;;;;;;34.75;9.70;;;6.30;99.90;;;;;;4971741;28;20113;-68
2021/12/26 11:20:53;;;;;;;26.67;8.73;;;6.20;99.90;;;;;;4970962;28;20521;-67
2021/12/26 11:23:25;;;;;;;15.23;4.57;;;6.20;99.90;;;;;;4971358;28;20086;-68
2021/12/26 11:25:59;;;;;;;90.82;20.30;;;6.20;99.90;;;;;;4966476;28;20483;-68
2021/12/26 11:28:28;;;;;;;43.35;10.48;;;6.10;99.90;;;;;;4971177;28;20034;-68
2021/12/26 11:31:03;;;;;;;175.20;31.98;;;6.10;99.90;;;;;;4971057;28;20114;-68
2021/12/26 11:33:29;;;;;;;196.75;36.85;;;6.00;99.90;;;;;;4971146;28;20027;-68
2021/12/26 11:35:57;;;;;;;119.22;22.83;;;6.00;99.90;;;;;;4970094;28;20045;-68
2021/12/26 11:38:24;;;;;;;17.27;5.72;;;6.00;99.90;;;;;;4971660;28;20090;-68
2021/12/26 11:40:58;;;;;;;32.58;9.07;;;6.00;99.90;;;;;;4971504;28;20111;-68
2021/12/26 11:43:54;;;;;;;14.75;6.30;;;6.00;99.90;;;;;;4970693;28;20031;-68
2021/12/26 11:46:39;;;;;;;23.30;6.55;;;6.00;99.90;;;;;;4970971;28;20070;-68
2021/12/26 11:49:37;;;;;;;28.52;8.63;;;5.90;99.90;;;;;;4970571;28;20023;-68
2021/12/26 11:52:03;;;;;;;24.88;9.10;;;5.90;99.90;;;;;;4970740;28;20035;-68
2021/12/26 11:54:44;;;;;;;12.43;5.80;;;6.10;99.90;;;;;;4969960;28;20484;-67
2021/12/26 11:57:49;;;;;;;13.02;5.88;;;6.10;99.90;;;;;;4969047;28;20033;-70
2021/12/26 12:00:25;;;;;;;15.15;5.50;;;6.00;99.90;;;;;;4966158;28;20053;-71
2021/12/26 12:02:54;;;;;;;28.63;7.82;;;6.00;99.90;;;;;;4967535;28;20058;-70
2021/12/26 12:05:48;;;;;;;10.35;4.68;;;6.10;99.90;;;;;;4970451;28;20022;-72
2021/12/26 12:08:32;;;;;;;16.40;6.72;;;6.10;99.90;;;;;;4963812;28;20059;-72
2021/12/26 12:10:58;;;;;;;12.45;5.53;;;6.10;99.90;;;;;;4970274;28;20739;-69
2021/12/26 12:13:26;;;;;;;17.40;6.05;;;6.10;99.90;;;;;;4968956;28;20030;-71
2021/12/26 12:15:57;;;;;;;44.95;12.07;;;6.10;99.90;;;;;;4969280;28;20035;-71
2021/12/26 12:18:28;;;;;;;14.70;5.85;;;6.20;99.90;;;;;;4970112;28;20090;-72
2021/12/26 12:21:13;;;;;;;11.35;5.32;;;6.20;99.90;;;;;;4969330;28;20475;-75
2021/12/26 12:24:02;;;;;;;10.98;4.85;;;6.20;99.90;;;;;;4970152;28;20054;-75
2021/12/26 12:26:48;;;;;;;41.38;10.20;;;6.20;99.90;;;;;;4969420;28;20048;-71
2021/12/26 12:29:39;;;;;;;18.58;6.90;;;6.30;99.90;;;;;;4969737;28;20039;-71
2021/12/26 12:32:08;;;;;;;12.20;5.43;;;6.30;99.90;;;;;;4959207;28;20181;-71
2021/12/26 12:34:49;;;;;;;13.05;5.75;;;6.40;99.90;;;;;;4953483;28;20038;-72
2021/12/26 12:37:30;;;;;;;9.95;4.50;;;6.30;99.90;;;;;;4980933;28;20744;-71
2021/12/26 12:40:13;;;;;;;11.70;5.03;;;6.40;99.90;;;;;;4979986;28;20034;-73
2021/12/26 12:42:43;;;;;;;12.52;5.43;;;6.40;99.90;;;;;;4988896;28;20026;-72
2021/12/26 12:45:09;;;;;;;11.67;4.87;;;6.40;99.90;;;;;;4988252;28;20359;-73
2021/12/26 12:47:34;;;;;;;9.45;4.20;;;6.40;99.90;;;;;;4989358;28;20038;-72
2021/12/26 12:50:03;;;;;;;11.18;4.88;;;6.50;99.90;;;;;;4989015;28;20027;-73
2021/12/26 12:52:47;;;;;;;13.65;6.00;;;6.50;99.90;;;;;;4990117;28;20114;-72
2021/12/26 12:55:47;;;;;;;13.10;4.88;;;6.50;99.90;;;;;;4988988;28;20494;-71
2021/12/26 12:58:21;;;;;;;19.20;7.07;;;6.50;99.90;;;;;;4988934;28;20386;-73
2021/12/26 13:00:47;;;;;;;57.20;35.40;;;6.50;99.90;;;;;;4973973;28;20308;-73
2021/12/26 13:03:15;;;;;;;22.55;11.27;;;6.60;99.90;;;;;;4988769;28;20062;-72